createdAt,value
2023-05-08T05:01:09.638Z,42.67
2023-05-08T05:02:09.745Z,41.55
2023-05-08T05:03:09.749Z,41.39
2023-05-08T05:04:09.761Z,41.30
2023-05-08T05:05:09.767Z,41.26
2023-05-08T05:06:09.804Z,41.23
2023-05-08T05:07:09.825Z,41.21
2023-05-08T05:08:09.838Z,41.10
2023-05-08T05:09:09.864Z,41.12
2023-05-08T05:10:09.867Z,41.14
2023-05-08T05:11:09.895Z,41.15
2023-05-08T05:12:09.918Z,41.13
2023-05-08T05:13:09.972Z,41.16
2023-05-08T05:14:10.086Z,41.18
2023-05-08T05:15:10.287Z,41.15
2023-05-08T05:16:10.151Z,41.14
2023-05-08T05:17:10.205Z,41.13
2023-05-08T05:18:10.320Z,41.11
2023-05-08T05:19:10.338Z,41.14
2023-05-08T05:20:10.362Z,41.13
2023-05-08T05:21:10.459Z,41.16
2023-05-08T05:22:10.561Z,41.11
2023-05-08T05:23:10.531Z,41.05
2023-05-08T05:24:10.579Z,41.15
2023-05-08T05:25:10.736Z,41.16
2023-05-08T05:26:10.673Z,41.21
2023-05-08T05:27:10.721Z,41.17
2023-05-08T05:28:10.754Z,41.07
2023-05-08T05:29:10.846Z,41.20
2023-05-08T05:30:11.017Z,41.22
2023-05-08T05:31:10.964Z,41.18
2023-05-08T05:32:10.970Z,41.18
2023-05-08T05:33:10.976Z,41.09
2023-05-08T05:34:11.040Z,41.15
2023-05-08T05:35:11.282Z,41.16
2023-05-08T05:36:11.146Z,41.24
2023-05-08T05:37:11.184Z,41.15
2023-05-08T05:38:11.274Z,41.23
2023-05-08T05:39:11.339Z,41.28
2023-05-08T05:40:11.324Z,41.34
2023-05-08T05:41:11.439Z,41.35
2023-05-08T05:42:11.423Z,41.46
2023-05-08T05:43:11.484Z,41.57
2023-05-08T05:44:11.534Z,41.88
2023-05-08T05:45:11.859Z,41.73
2023-05-08T05:46:12.024Z,41.70
2023-05-08T05:47:11.827Z,41.93
2023-05-08T05:48:11.766Z,41.82
2023-05-08T05:49:11.836Z,41.83
2023-05-08T05:50:12.343Z,41.99
2023-05-08T05:51:11.989Z,42.07
2023-05-08T05:52:12.099Z,42.13
2023-05-08T05:53:12.031Z,42.44
2023-05-08T05:54:12.121Z,42.51
2023-05-08T05:55:12.568Z,42.40
2023-05-08T05:56:12.993Z,42.51
2023-05-08T05:57:12.254Z,42.23
2023-05-08T05:58:12.297Z,42.45
2023-05-08T05:59:12.392Z,42.44
2023-05-08T06:00:12.369Z,43.07
2023-05-08T06:01:12.435Z,43.06
2023-05-08T06:02:12.477Z,42.70
2023-05-08T06:03:12.674Z,42.75
2023-05-08T06:04:12.697Z,42.66
2023-05-08T06:05:12.871Z,42.66
2023-05-08T06:06:12.591Z,42.65
2023-05-08T06:07:12.779Z,42.63
2023-05-08T06:08:12.716Z,42.48
2023-05-08T06:09:12.717Z,42.47
2023-05-08T06:10:12.784Z,42.45
2023-05-08T06:11:12.884Z,42.44
2023-05-08T06:12:12.941Z,42.44
2023-05-08T06:13:12.997Z,42.40
2023-05-08T06:14:12.922Z,42.34
2023-05-08T06:15:13.331Z,42.34
2023-05-08T06:16:12.980Z,42.31
2023-05-08T06:17:13.177Z,42.20
2023-05-08T06:18:13.114Z,42.18
2023-05-08T06:19:13.163Z,42.21
2023-05-08T06:20:13.215Z,42.14
2023-05-08T06:21:13.210Z,42.14
2023-05-08T06:22:13.323Z,42.07
2023-05-08T06:23:13.307Z,42.11
2023-05-08T06:24:14.684Z,42.23
2023-05-08T06:25:13.511Z,42.27
2023-05-08T06:26:13.452Z,42.32
2023-05-08T06:27:13.440Z,42.34
2023-05-08T06:28:13.493Z,42.62
2023-05-08T06:29:13.485Z,42.65
2023-05-08T06:30:13.524Z,42.73
2023-05-08T06:31:13.858Z,42.61
2023-05-08T06:32:13.693Z,43.05
2023-05-08T06:33:13.933Z,42.92
2023-05-08T06:34:14.150Z,43.11
2023-05-08T06:35:13.946Z,43.14
2023-05-08T06:36:13.670Z,43.10
2023-05-08T06:37:13.738Z,43.09
2023-05-08T06:38:13.724Z,43.22
2023-05-08T06:39:13.680Z,43.31
2023-05-08T06:40:13.713Z,43.36
2023-05-08T06:41:15.284Z,43.63
2023-05-08T06:42:13.771Z,43.60
2023-05-08T06:43:13.763Z,43.40
2023-05-08T06:44:13.758Z,43.42
2023-05-08T06:45:13.940Z,43.37
2023-05-08T06:46:13.828Z,43.50
2023-05-08T06:47:13.833Z,43.62
2023-05-08T06:48:14.056Z,43.59
2023-05-08T06:49:13.823Z,43.54
2023-05-08T06:50:13.844Z,43.53
2023-05-08T06:51:13.889Z,43.53
2023-05-08T06:52:13.934Z,43.57
2023-05-08T06:53:13.923Z,43.55
2023-05-08T06:54:14.152Z,43.59
2023-05-08T06:55:14.299Z,43.59
2023-05-08T06:56:13.963Z,43.61
2023-05-08T06:57:13.994Z,43.64
2023-05-08T06:58:14.161Z,43.79
2023-05-08T06:59:14.066Z,43.67
2023-05-08T07:00:13.994Z,43.76
2023-05-08T07:01:14.121Z,43.84
2023-05-08T07:02:14.087Z,43.78
2023-05-08T07:03:14.232Z,43.76
2023-05-08T07:04:14.114Z,43.78
2023-05-08T07:05:14.823Z,43.73
2023-05-08T07:06:14.120Z,43.77
2023-05-08T07:07:14.142Z,43.82
2023-05-08T07:08:14.143Z,43.75
2023-05-08T07:09:14.189Z,43.77
2023-05-08T07:10:14.176Z,43.78
2023-05-08T07:11:14.167Z,43.83
2023-05-08T07:12:14.208Z,43.99
2023-05-08T07:13:14.269Z,43.96
2023-05-08T07:14:14.192Z,43.95
2023-05-08T07:15:25.317Z,43.93
2023-05-08T07:16:15.287Z,43.94
2023-05-08T07:17:15.058Z,43.91
2023-05-08T07:18:14.192Z,43.52
2023-05-08T07:19:14.153Z,43.36
2023-05-08T07:20:14.317Z,43.46
2023-05-08T07:21:14.180Z,43.27
2023-05-08T07:22:14.205Z,43.12
2023-05-08T07:23:14.299Z,43.17
2023-05-08T07:24:14.964Z,43.07
2023-05-08T07:25:14.382Z,43.25
2023-05-08T07:26:14.159Z,43.29
2023-05-08T07:27:14.241Z,43.21
2023-05-08T07:28:14.100Z,43.35
2023-05-08T07:29:29.088Z,43.47
2023-05-08T07:30:14.092Z,43.30
2023-05-08T07:31:14.140Z,43.24
2023-05-08T07:32:14.079Z,43.21
2023-05-08T07:33:14.063Z,43.34
2023-05-08T07:34:14.084Z,43.20
2023-05-08T07:35:14.229Z,43.50
2023-05-08T07:36:16.434Z,43.44
2023-05-08T07:37:14.149Z,43.38
2023-05-08T07:38:14.082Z,43.36
2023-05-08T07:39:14.290Z,43.41
2023-05-08T07:40:14.260Z,43.48
2023-05-08T07:41:14.305Z,43.50
2023-05-08T07:42:14.265Z,43.50
2023-05-08T07:43:14.296Z,43.58
2023-05-08T07:44:15.081Z,43.50
2023-05-08T07:45:14.740Z,43.29
2023-05-08T07:46:14.502Z,43.43
2023-05-08T07:47:14.462Z,43.43
2023-05-08T07:48:14.787Z,43.62
2023-05-08T07:49:14.388Z,43.63
2023-05-08T07:50:14.396Z,43.75
2023-05-08T07:51:16.076Z,43.82
2023-05-08T07:52:15.254Z,44.19
2023-05-08T07:53:14.453Z,44.25
2023-05-08T07:54:14.545Z,44.52
2023-05-08T07:55:14.526Z,44.53
2023-05-08T07:56:14.309Z,44.34
2023-05-08T07:57:14.385Z,44.25
2023-05-08T07:58:14.443Z,44.05
2023-05-08T07:59:14.594Z,44.19
2023-05-08T08:00:14.734Z,44.30
2023-05-08T08:01:14.637Z,44.22
2023-05-08T08:02:15.168Z,44.12
2023-05-08T08:03:14.801Z,44.08
2023-05-08T08:04:15.558Z,44.07
2023-05-08T08:05:14.906Z,44.06
2023-05-08T08:06:14.874Z,44.16
2023-05-08T08:07:14.710Z,44.15
2023-05-08T08:08:14.745Z,44.13
2023-05-08T08:09:14.775Z,44.05
2023-05-08T08:10:14.825Z,44.16
2023-05-08T08:11:14.842Z,43.90
2023-05-08T08:12:15.094Z,43.96
2023-05-08T08:13:15.142Z,43.82
2023-05-08T08:14:15.058Z,43.81
2023-05-08T08:15:15.348Z,43.70
2023-05-08T08:16:15.149Z,43.68
2023-05-08T08:17:15.276Z,43.60
2023-05-08T08:18:15.334Z,43.60
2023-05-08T08:19:15.276Z,43.63
2023-05-08T08:20:15.829Z,43.55
2023-05-08T08:21:15.413Z,43.66
2023-05-08T08:22:15.463Z,43.58
2023-05-08T08:23:15.489Z,43.56
2023-05-08T08:24:15.602Z,43.55
2023-05-08T08:25:15.789Z,43.74
2023-05-08T08:26:15.830Z,43.97
2023-05-08T08:27:16.570Z,44.18
2023-05-08T08:28:15.709Z,44.14
2023-05-08T08:29:15.845Z,44.28
2023-05-08T08:30:18.286Z,44.49
2023-05-08T08:31:15.886Z,44.27
2023-05-08T08:32:15.741Z,44.59
2023-05-08T08:33:18.227Z,44.50
2023-05-08T08:34:15.758Z,44.73
2023-05-08T08:35:15.962Z,44.62
2023-05-08T08:36:15.742Z,44.70
2023-05-08T08:37:15.731Z,44.68
2023-05-08T08:38:15.784Z,44.62
2023-05-08T08:39:15.736Z,44.48
2023-05-08T08:40:15.721Z,44.58
2023-05-08T08:41:15.707Z,45.04
2023-05-08T08:42:15.714Z,45.00
2023-05-08T08:43:15.727Z,44.73
2023-05-08T08:44:15.742Z,45.10
2023-05-08T08:45:16.067Z,45.27
2023-05-08T08:46:15.819Z,45.34
2023-05-08T08:47:15.652Z,45.99
2023-05-08T08:48:17.613Z,46.01
2023-05-08T08:49:15.618Z,46.25
2023-05-08T08:50:16.150Z,46.05
2023-05-08T08:51:16.569Z,45.83
2023-05-08T08:52:15.888Z,45.79
2023-05-08T08:53:15.728Z,45.85
2023-05-08T08:54:15.628Z,45.78
2023-05-08T08:55:15.766Z,45.63
2023-05-08T08:56:17.154Z,45.71
2023-05-08T08:57:16.593Z,45.76
2023-05-08T08:58:15.699Z,45.97
2023-05-08T08:59:15.567Z,46.23
2023-05-08T09:00:16.146Z,46.41
2023-05-08T09:01:15.677Z,46.36
2023-05-08T09:02:15.722Z,46.51
2023-05-08T09:04:34.755Z,46.68
2023-05-08T09:05:34.765Z,46.73
2023-05-08T09:06:34.803Z,46.47
2023-05-08T09:07:34.737Z,46.78
2023-05-08T09:08:34.761Z,46.92
2023-05-08T09:09:34.729Z,47.01
2023-05-08T09:10:34.770Z,46.96
2023-05-08T09:11:34.965Z,46.95
2023-05-08T09:12:34.697Z,46.87
2023-05-08T09:13:34.786Z,46.91
2023-05-08T09:14:34.726Z,46.78
2023-05-08T09:15:34.676Z,46.64
2023-05-08T09:16:34.794Z,46.50
2023-05-08T09:17:34.678Z,46.57
2023-05-08T09:18:34.643Z,46.71
2023-05-08T09:19:34.662Z,46.44
2023-05-08T09:20:34.708Z,46.42
2023-05-08T09:21:34.634Z,46.56
2023-05-08T09:22:34.759Z,46.54
2023-05-08T09:23:34.648Z,46.46
2023-05-08T09:24:34.619Z,46.31
2023-05-08T09:25:34.644Z,46.21
2023-05-08T09:26:34.656Z,46.19
2023-05-08T09:27:34.723Z,46.18
2023-05-08T09:28:34.746Z,46.18
2023-05-08T09:29:34.786Z,46.06
2023-05-08T09:30:34.779Z,46.05
2023-05-08T09:31:34.908Z,45.79
2023-05-08T09:32:35.060Z,46.17
2023-05-08T09:33:34.952Z,46.06
2023-05-08T09:34:34.982Z,46.11
2023-05-08T09:35:35.021Z,45.93
2023-05-08T09:36:35.057Z,45.89
2023-05-08T09:37:35.080Z,46.03
2023-05-08T09:38:35.208Z,45.91
2023-05-08T09:39:35.165Z,45.81
2023-05-08T09:40:35.376Z,45.83
2023-05-08T09:41:35.278Z,45.66
2023-05-08T09:42:35.254Z,45.75
2023-05-08T09:43:35.289Z,45.75
2023-05-08T09:44:35.324Z,45.82
2023-05-08T09:45:35.471Z,45.66
2023-05-08T09:46:35.407Z,45.68
2023-05-08T09:47:35.477Z,45.63
2023-05-08T09:48:35.578Z,45.37
2023-05-08T09:49:35.531Z,45.44
2023-05-08T09:50:35.567Z,45.51
2023-05-08T09:51:35.628Z,45.47
2023-05-08T09:52:35.710Z,45.37
2023-05-08T09:53:35.709Z,45.34
2023-05-08T09:54:35.673Z,45.36
2023-05-08T09:55:35.734Z,45.28
2023-05-08T09:56:35.766Z,45.10
2023-05-08T09:57:35.797Z,45.08
2023-05-08T09:58:35.849Z,45.26
2023-05-08T09:59:35.832Z,45.13
2023-05-08T10:00:36.005Z,45.10
2023-05-08T10:01:36.110Z,45.47
2023-05-08T10:02:36.047Z,45.49
2023-05-08T10:03:36.126Z,45.46
2023-05-08T10:04:36.378Z,45.33
2023-05-08T10:05:36.198Z,45.27
2023-05-08T10:06:36.237Z,45.30
2023-05-08T10:07:36.971Z,45.50
2023-05-08T10:08:36.344Z,45.50
2023-05-08T10:09:49.754Z,45.59
2023-05-08T10:10:37.458Z,45.66
2023-05-08T10:11:36.382Z,45.69
2023-05-08T10:12:36.376Z,45.74
2023-05-08T10:13:36.389Z,45.84
2023-05-08T10:14:36.774Z,45.90
2023-05-08T10:15:36.368Z,45.92
2023-05-08T10:16:36.490Z,45.97
2023-05-08T10:17:36.410Z,46.05
2023-05-08T10:18:36.339Z,46.05
2023-05-08T10:19:36.413Z,46.13
2023-05-08T10:20:36.543Z,46.23
2023-05-08T10:21:36.513Z,46.36
2023-05-08T10:22:36.580Z,46.33
2023-05-08T10:23:36.623Z,46.02
2023-05-08T10:24:36.636Z,45.97
2023-05-08T10:25:36.686Z,45.85
2023-05-08T10:26:36.714Z,44.98
2023-05-08T10:27:36.779Z,45.24
2023-05-08T10:28:36.806Z,44.78
2023-05-08T10:29:36.876Z,44.78
2023-05-08T10:30:36.917Z,44.60
2023-05-08T10:31:37.172Z,44.76
2023-05-08T10:32:37.085Z,43.75
2023-05-08T10:33:37.056Z,43.61
2023-05-08T10:34:37.120Z,43.99
2023-05-08T10:35:37.132Z,43.55
2023-05-08T10:36:37.329Z,43.58
2023-05-08T10:37:37.202Z,43.45
2023-05-08T10:38:37.395Z,43.43
2023-05-08T10:39:37.330Z,43.49
2023-05-08T10:40:37.379Z,43.38
2023-05-08T10:41:37.402Z,43.35
2023-05-08T10:42:37.385Z,43.34
2023-05-08T10:43:37.377Z,43.13
2023-05-08T10:44:37.423Z,43.26
2023-05-08T10:45:37.415Z,43.06
2023-05-08T10:46:37.516Z,43.15
2023-05-08T10:47:37.472Z,42.99
2023-05-08T10:48:37.465Z,42.99
2023-05-08T10:49:37.492Z,42.87
2023-05-08T10:50:37.533Z,42.87
2023-05-08T10:51:37.507Z,42.87
2023-05-08T10:52:37.533Z,43.13
2023-05-08T10:53:37.555Z,42.82
2023-05-08T10:54:37.538Z,42.79
2023-05-08T10:55:37.587Z,42.73
2023-05-08T10:56:37.610Z,42.72
2023-05-08T10:57:37.594Z,42.76
2023-05-08T10:58:37.653Z,42.76
2023-05-08T10:59:37.629Z,42.87
2023-05-08T11:00:37.676Z,43.10
2023-05-08T11:01:37.682Z,42.90
2023-05-08T11:02:37.723Z,42.84
2023-05-08T11:03:37.757Z,43.04
2023-05-08T11:04:37.927Z,43.37
2023-05-08T11:05:37.776Z,43.18
2023-05-08T11:06:37.754Z,43.20
2023-05-08T11:07:37.759Z,43.03
2023-05-08T11:08:38.019Z,42.97
2023-05-08T11:09:37.767Z,42.83
2023-05-08T11:10:37.785Z,42.81
2023-05-08T11:11:37.813Z,42.65
2023-05-08T11:12:37.881Z,42.78
2023-05-08T11:13:37.848Z,42.46
2023-05-08T11:14:37.844Z,42.33
2023-05-08T11:15:37.803Z,42.41
2023-05-08T11:16:37.904Z,42.58
2023-05-08T11:17:37.895Z,42.40
2023-05-08T11:18:48.360Z,42.35
2023-05-08T11:19:38.929Z,42.25
2023-05-08T11:20:37.878Z,42.37
2023-05-08T11:21:37.843Z,42.38
2023-05-08T11:22:37.863Z,42.38
2023-05-08T11:23:37.899Z,42.58
2023-05-08T11:24:37.948Z,42.91
2023-05-08T11:25:37.810Z,43.25
2023-05-08T11:26:37.815Z,43.41
2023-05-08T11:27:37.815Z,43.43
2023-05-08T11:28:37.795Z,43.44
2023-05-08T11:29:37.811Z,43.37
2023-05-08T11:30:37.774Z,43.33
2023-05-08T11:31:37.815Z,43.31
2023-05-08T11:32:37.816Z,43.48
2023-05-08T11:33:37.782Z,43.52
2023-05-08T11:34:37.798Z,43.58
2023-05-08T11:35:37.847Z,43.70
2023-05-08T11:36:37.868Z,43.79
2023-05-08T11:37:37.866Z,43.80
2023-05-08T11:38:37.874Z,43.72
2023-05-08T11:39:37.938Z,43.75
2023-05-08T11:40:37.978Z,43.77
2023-05-08T11:41:37.925Z,43.80
2023-05-08T11:42:37.958Z,43.79
2023-05-08T11:43:38.040Z,43.81
2023-05-08T11:44:37.992Z,43.82
2023-05-08T11:45:37.986Z,43.79
2023-05-08T11:46:38.072Z,43.80
2023-05-08T11:47:38.084Z,43.75
2023-05-08T11:48:38.038Z,43.79
2023-05-08T11:49:38.009Z,43.76
2023-05-08T11:50:38.044Z,43.81
2023-05-08T11:51:38.050Z,44.02
2023-05-08T11:52:38.078Z,43.86
2023-05-08T11:53:38.068Z,43.89
2023-05-08T11:54:38.122Z,43.99
2023-05-08T11:55:38.104Z,43.90
2023-05-08T11:56:38.133Z,43.88
2023-05-08T11:57:38.198Z,43.93
2023-05-08T11:58:38.149Z,43.87
2023-05-08T11:59:38.253Z,43.87
2023-05-08T12:00:38.176Z,43.90
2023-05-08T12:01:38.140Z,43.90
2023-05-08T12:02:38.264Z,43.95
2023-05-08T12:03:38.292Z,43.95
2023-05-08T12:04:38.146Z,43.86
2023-05-08T12:05:38.103Z,43.89
2023-05-08T12:06:38.106Z,43.21
2023-05-08T12:07:38.081Z,42.87
2023-05-08T12:08:38.113Z,42.50
2023-05-08T12:09:38.116Z,42.49
2023-05-08T12:10:38.076Z,42.25
2023-05-08T12:11:38.086Z,42.15
2023-05-08T12:12:38.134Z,42.23
2023-05-08T12:13:38.101Z,42.07
2023-05-08T12:14:38.118Z,42.07
2023-05-08T12:15:38.100Z,42.14
2023-05-08T12:16:38.214Z,42.12
2023-05-08T12:17:38.262Z,42.05
2023-05-08T12:18:39.864Z,42.10
2023-05-08T12:19:38.244Z,42.12
2023-05-08T12:20:38.201Z,42.18
2023-05-08T12:21:38.226Z,42.14
2023-05-08T12:22:38.317Z,42.07
2023-05-08T12:23:38.246Z,42.06
2023-05-08T12:24:38.245Z,42.05
2023-05-08T12:25:38.226Z,41.98
2023-05-08T12:26:38.269Z,41.97
2023-05-08T12:27:38.292Z,41.94
2023-05-08T12:28:38.269Z,42.02
2023-05-08T12:29:38.306Z,42.01
2023-05-08T12:30:38.293Z,41.94
2023-05-08T12:31:38.415Z,41.90
2023-05-08T12:32:38.336Z,41.85
2023-05-08T12:33:38.321Z,41.78
2023-05-08T12:34:38.341Z,41.66
2023-05-08T12:35:38.365Z,41.80
2023-05-08T12:36:38.416Z,41.71
2023-05-08T12:37:38.425Z,41.82
2023-05-08T12:38:38.403Z,41.76
2023-05-08T12:39:38.393Z,41.75
2023-05-08T12:40:38.455Z,41.76
2023-05-08T12:41:38.487Z,41.69
2023-05-08T12:42:38.415Z,41.72
2023-05-08T12:43:38.475Z,41.60
2023-05-08T12:44:38.607Z,41.58
2023-05-08T12:45:38.494Z,41.54
2023-05-08T12:46:38.558Z,41.49
2023-05-08T12:47:38.601Z,41.51
2023-05-08T12:48:38.596Z,41.56
2023-05-08T12:49:38.583Z,41.54
2023-05-08T12:50:38.573Z,41.55
2023-05-08T12:51:38.579Z,41.53
2023-05-08T12:52:38.599Z,41.48
2023-05-08T12:53:38.581Z,41.40
2023-05-08T12:54:38.678Z,41.44
2023-05-08T12:55:38.677Z,41.27
2023-05-08T12:56:38.693Z,41.19
2023-05-08T12:57:38.642Z,41.16
2023-05-08T12:58:38.662Z,41.18
2023-05-08T12:59:38.647Z,41.06
2023-05-08T13:00:38.771Z,41.07
2023-05-08T13:01:38.724Z,41.06
2023-05-08T13:02:44.547Z,41.00
2023-05-08T13:03:39.770Z,41.01
2023-05-08T13:04:38.939Z,40.96
2023-05-08T13:05:38.707Z,40.89
2023-05-08T13:06:38.698Z,40.89
2023-05-08T13:07:38.673Z,40.90
2023-05-08T13:08:38.745Z,40.89
2023-05-08T13:09:38.695Z,40.85
2023-05-08T13:10:38.643Z,40.86
2023-05-08T13:11:38.646Z,40.87
2023-05-08T13:12:38.723Z,40.82
2023-05-08T13:13:38.672Z,40.80
2023-05-08T13:14:38.619Z,40.76
2023-05-08T13:15:38.639Z,40.73
2023-05-08T13:16:40.095Z,40.72
2023-05-08T13:17:38.639Z,40.67
2023-05-08T13:18:38.620Z,40.67
2023-05-08T13:19:38.593Z,40.66
2023-05-08T13:20:38.601Z,40.66
2023-05-08T13:21:38.586Z,40.63
2023-05-08T13:22:38.610Z,40.59
2023-05-08T13:23:38.571Z,40.56
2023-05-08T13:24:38.565Z,40.53
2023-05-08T13:25:38.593Z,40.47
2023-05-08T13:26:38.521Z,40.47
2023-05-08T13:27:38.598Z,40.44
2023-05-08T13:28:38.600Z,40.44
2023-05-08T13:29:38.527Z,40.46
2023-05-08T13:30:38.600Z,40.44
2023-05-08T13:31:38.680Z,40.31
2023-05-08T13:32:38.692Z,40.29
2023-05-08T13:33:38.592Z,40.37
2023-05-08T13:34:47.220Z,40.31
2023-05-08T13:35:39.590Z,40.27
2023-05-08T13:36:38.555Z,40.24
2023-05-08T13:37:38.551Z,40.17
2023-05-08T13:38:38.619Z,40.20
2023-05-08T13:39:38.567Z,40.47
2023-05-08T13:40:38.530Z,40.61
2023-05-08T13:41:38.532Z,40.48
2023-05-08T13:42:38.516Z,40.38
2023-05-08T13:43:38.587Z,40.39
2023-05-08T13:44:38.503Z,40.35
2023-05-08T13:45:38.496Z,40.45
2023-05-08T13:46:38.525Z,40.52
2023-05-08T13:47:38.511Z,40.69
2023-05-08T13:48:38.547Z,40.77
2023-05-08T13:49:38.441Z,40.81
2023-05-08T13:50:38.480Z,40.82
2023-05-08T13:51:38.451Z,40.82
2023-05-08T13:52:38.418Z,40.86
2023-05-08T13:53:38.444Z,40.90
2023-05-08T13:54:38.410Z,40.92
2023-05-08T13:55:38.444Z,40.92
2023-05-08T13:56:38.430Z,40.87
2023-05-08T13:57:38.410Z,40.89
2023-05-08T13:58:38.428Z,40.95
2023-05-08T13:59:38.474Z,41.05
2023-05-08T14:00:38.403Z,41.02
2023-05-08T14:01:38.420Z,41.04
2023-05-08T14:02:38.432Z,41.05
2023-05-08T14:03:38.465Z,41.04
2023-05-08T14:04:38.509Z,41.00
2023-05-08T14:05:38.446Z,40.97
2023-05-08T14:06:38.434Z,40.95
2023-05-08T14:07:38.459Z,40.98
2023-05-08T14:08:45.134Z,41.01
2023-05-08T14:09:39.491Z,41.07
2023-05-08T14:10:38.517Z,41.07
2023-05-08T14:11:38.493Z,41.09
2023-05-08T14:12:38.635Z,41.09
2023-05-08T14:13:38.440Z,41.06
2023-05-08T14:14:38.433Z,41.05
2023-05-08T14:15:38.555Z,41.05
2023-05-08T14:16:38.524Z,41.05
2023-05-08T14:17:38.481Z,41.06
2023-05-08T14:18:38.429Z,41.06
2023-05-08T14:19:38.459Z,41.09
2023-05-08T14:20:38.576Z,41.12
2023-05-08T14:21:38.585Z,41.11
2023-05-08T14:22:38.654Z,41.01
2023-05-08T14:23:38.646Z,40.99
2023-05-08T14:24:38.702Z,41.00
2023-05-08T14:25:38.724Z,41.01
2023-05-08T14:26:39.225Z,41.03
2023-05-08T14:27:38.842Z,41.06
2023-05-08T14:28:38.911Z,41.08
2023-05-08T14:29:38.965Z,41.10
2023-05-08T14:30:39.045Z,41.13
2023-05-08T14:31:39.084Z,41.15
2023-05-08T14:32:39.184Z,41.16
2023-05-08T14:33:39.212Z,41.15
2023-05-08T14:34:39.221Z,41.22
2023-05-08T14:35:39.273Z,41.14
2023-05-08T14:36:39.407Z,41.12
2023-05-08T14:37:39.380Z,41.14
2023-05-08T14:38:39.408Z,41.15
2023-05-08T14:39:39.463Z,41.11
2023-05-08T14:40:39.563Z,41.10
2023-05-08T14:41:39.579Z,41.20
2023-05-08T14:42:39.636Z,41.20
2023-05-08T14:43:39.704Z,41.17
2023-05-08T14:44:39.839Z,41.24
2023-05-08T14:45:39.801Z,41.27
2023-05-08T14:46:39.945Z,41.26
2023-05-08T14:47:39.922Z,41.27
2023-05-08T14:48:39.937Z,41.27
2023-05-08T14:49:40.011Z,41.29
2023-05-08T14:50:40.049Z,41.31
2023-05-08T14:51:40.098Z,41.30
2023-05-08T14:52:40.218Z,41.30
2023-05-08T14:53:40.325Z,41.26
2023-05-08T14:54:40.576Z,41.28
2023-05-08T14:55:40.603Z,41.27
2023-05-08T14:56:47.204Z,41.26
2023-05-08T14:57:41.335Z,41.33
2023-05-08T14:58:40.335Z,41.31
2023-05-08T14:59:48.958Z,41.31
2023-05-08T15:00:41.319Z,41.37
2023-05-08T15:01:40.333Z,41.42
2023-05-08T15:02:40.486Z,41.46
2023-05-08T15:03:40.458Z,41.40
2023-05-08T15:04:40.337Z,41.39
2023-05-08T15:05:40.313Z,41.41
2023-05-08T15:06:40.312Z,41.41
2023-05-08T15:07:42.127Z,41.45
2023-05-08T15:08:40.372Z,41.46
2023-05-08T15:09:40.303Z,41.44
2023-05-08T15:10:40.369Z,41.45
2023-05-08T15:11:40.391Z,41.46
2023-05-08T15:12:40.631Z,41.49
2023-05-08T15:13:40.529Z,41.44
2023-05-08T15:14:40.524Z,41.36
2023-05-08T15:15:40.567Z,41.41
2023-05-08T15:16:40.718Z,41.32
2023-05-08T15:17:40.732Z,41.32
2023-05-08T15:18:40.762Z,41.30
2023-05-08T15:19:40.804Z,41.27
2023-05-08T15:20:40.858Z,41.28
2023-05-08T15:21:40.939Z,41.27
2023-05-08T15:22:41.024Z,41.27
2023-05-08T15:23:41.016Z,41.29
2023-05-08T15:24:41.446Z,41.25
2023-05-08T15:25:41.165Z,41.26
2023-05-08T15:26:41.193Z,41.26
2023-05-08T15:27:41.248Z,41.22
2023-05-08T15:28:41.287Z,41.23
2023-05-08T15:29:41.357Z,41.25
2023-05-08T15:30:41.390Z,41.23
2023-05-08T15:31:41.481Z,41.23
2023-05-08T15:32:41.586Z,41.22
2023-05-08T15:33:41.582Z,41.25
2023-05-08T15:34:41.628Z,41.24
2023-05-08T15:35:41.649Z,41.23
2023-05-08T15:36:41.709Z,41.25
2023-05-08T15:37:41.745Z,41.24
2023-05-08T15:38:41.795Z,41.25
2023-05-08T15:39:41.895Z,41.25
2023-05-08T15:40:42.054Z,41.26
2023-05-08T15:41:41.986Z,41.24
2023-05-08T15:42:42.044Z,41.26
2023-05-08T15:43:42.132Z,41.24
2023-05-08T15:44:54.243Z,41.24
2023-05-08T15:45:43.178Z,41.26
2023-05-08T15:46:42.120Z,41.27
2023-05-08T15:47:42.177Z,41.28
2023-05-08T15:48:42.123Z,41.27
2023-05-08T15:49:42.150Z,41.28
2023-05-08T15:50:42.144Z,41.30
2023-05-08T15:51:42.124Z,41.29
2023-05-08T15:52:42.149Z,41.26
2023-05-08T15:53:42.145Z,41.29
2023-05-08T15:54:42.220Z,41.24
2023-05-08T15:55:42.312Z,41.29
2023-05-08T15:56:42.462Z,41.26
2023-05-08T15:57:42.382Z,41.27
2023-05-08T15:58:42.414Z,41.29
2023-05-08T15:59:42.432Z,41.30
2023-05-08T16:00:45.159Z,41.30
2023-05-08T16:01:42.497Z,41.29
2023-05-08T16:02:42.528Z,41.28
2023-05-08T16:03:42.499Z,41.31
2023-05-08T16:04:42.514Z,41.28
2023-05-08T16:05:42.445Z,41.29
2023-05-08T16:06:42.478Z,41.30
2023-05-08T16:07:42.410Z,41.31
2023-05-08T16:08:42.438Z,41.30
2023-05-08T16:09:42.407Z,41.28
2023-05-08T16:10:42.478Z,41.29
2023-05-08T16:11:42.396Z,41.29
2023-05-08T16:12:42.474Z,41.30
2023-05-08T16:13:42.379Z,41.27
2023-05-08T16:14:42.385Z,41.30
2023-05-08T16:15:42.410Z,41.32
2023-05-08T16:16:42.411Z,41.31
2023-05-08T16:17:42.384Z,41.30
2023-05-08T16:18:42.374Z,41.30
2023-05-08T16:19:42.352Z,41.30
2023-05-08T16:20:42.346Z,41.30
2023-05-08T16:21:42.350Z,41.33
2023-05-08T16:22:42.326Z,41.32
2023-05-08T16:23:42.321Z,41.32
2023-05-08T16:24:42.296Z,41.30
2023-05-08T16:25:42.298Z,41.33
2023-05-08T16:26:42.295Z,41.32
2023-05-08T16:27:42.296Z,41.32
2023-05-08T16:28:42.377Z,41.31
2023-05-08T16:29:42.272Z,41.31
2023-05-08T16:30:42.294Z,41.29
2023-05-08T16:31:42.313Z,41.28
2023-05-08T16:32:42.282Z,41.32
2023-05-08T16:33:42.227Z,41.31
2023-05-08T16:34:42.205Z,41.32
2023-05-08T16:35:42.243Z,41.33
2023-05-08T16:36:42.269Z,41.32
2023-05-08T16:37:42.201Z,41.33
2023-05-08T16:38:42.199Z,41.31
2023-05-08T16:39:42.228Z,41.35
2023-05-08T16:40:42.196Z,41.33
2023-05-08T16:41:42.227Z,41.32
2023-05-08T16:42:42.163Z,41.31
2023-05-08T16:43:42.166Z,41.33
2023-05-08T16:44:42.379Z,41.33
2023-05-08T16:45:42.159Z,41.35
2023-05-08T16:46:42.188Z,41.34
2023-05-08T16:47:42.179Z,41.32
2023-05-08T16:48:42.188Z,41.33
2023-05-08T16:49:42.204Z,41.32
2023-05-08T16:50:42.245Z,41.31
2023-05-08T16:51:42.312Z,41.32
2023-05-08T16:52:42.323Z,41.31
2023-05-08T16:53:42.358Z,41.34
2023-05-08T16:54:42.390Z,41.33
2023-05-08T16:55:42.392Z,41.30
2023-05-08T16:56:42.436Z,41.33
2023-05-08T16:57:42.459Z,41.32
2023-05-08T16:58:42.463Z,41.31
2023-05-08T16:59:42.492Z,41.30
2023-05-08T17:00:42.599Z,41.31
